Time,TemperatureF,DewpointF,PressureIn,WindDirection,WindDirectionDegrees,WindSpeedMPH,WindSpeedGustMPH,Humidity,HourlyPrecipIn,Conditions,Clouds,dailyrainin,SoftwareType,DateUTC
2013-03-16 00:00:00,41.7,-11.0,29.64,NW,315,0.0,0.0,10,0.00,CLR,,0.00,WeatherDisplay:10.37,2013-03-16 04:00:00,
2013-03-16 00:05:00,41.7,-5.6,29.64,SW,225,0.0,0.7,13,0.00,CLR,,0.00,WeatherDisplay:10.37,2013-03-16 04:05:00,
2013-03-16 00:10:00,41.7,-5.6,29.64,WSW,245,0.0,2.0,13,0.00,CLR,,0.00,WeatherDisplay:10.37,2013-03-16 04:10:00,
2013-03-16 00:15:00,41.7,-7.3,29.64,SSW,193,0.0,2.0,12,0.00,CLR,,0.00,WeatherDisplay:10.37,2013-03-16 04:15:00,
2013-03-16 00:20:00,41.5,-5.8,29.64,South,180,0.0,0.0,13,0.00,CLR,,0.00,WeatherDisplay:10.37,2013-03-16 04:20:00,
2013-03-16 00:25:00,41.5,-5.8,29.64,South,190,0.0,0.0,13,0.00,CLR,,0.00,WeatherDisplay:10.37,2013-03-16 04:25:00,
2013-03-16 00:30:00,41.5,-5.8,29.64,SSW,211,0.0,0.0,13,0.00,CLR,,0.00,WeatherDisplay:10.37,2013-03-16 04:30:00,
2013-03-16 00:35:00,41.4,-4.4,29.64,SW,225,2.2,0.0,14,0.00,CLR,,0.00,WeatherDisplay:10.37,2013-03-16 04:35:00,
2013-03-16 00:40:00,41.4,-4.4,29.64,SW,225,0.0,2.0,14,0.00,CLR,,0.00,WeatherDisplay:10.37,2013-03-16 04:40:00,
2013-03-16 00:45:00,41.4,-5.9,29.64,SW,225,0.0,0.0,13,0.00,CLR,,0.00,WeatherDisplay:10.37,2013-03-16 04:45:00,
2013-03-16 00:50:00,41.4,-5.9,29.64,South,180,0.0,0.0,13,0.00,CLR,,0.00,WeatherDisplay:10.37,2013-03-16 04:50:00,
2013-03-16 00:55:00,41.2,-4.5,29.63,South,185,0.0,0.0,14,0.00,CLR,,0.00,WeatherDisplay:10.37,2013-03-16 04:55:00,
2013-03-16 01:00:00,41.0,-4.7,29.64,South,180,0.0,0.0,14,0.00,CLR,,0.00,WeatherDisplay:10.37,2013-03-16 05:00:00,
2013-03-16 01:05:00,40.6,-3.5,29.64,South,180,0.0,0.0,15,0.00,CLR,,0.00,WeatherDisplay:10.37,2013-03-16 05:05:00,
2013-03-16 01:10:00,40.5,-2.3,29.64,South,180,0.0,0.0,16,0.00,CLR,,0.00,WeatherDisplay:10.37,2013-03-16 05:10:00,
2013-03-16 01:15:00,40.1,-2.6,29.64,South,180,0.0,0.0,16,0.00,CLR,,0.00,WeatherDisplay:10.37,2013-03-16 05:15:00,
2013-03-16 01:20:00,39.9,-2.7,29.64,South,180,0.0,0.0,16,0.00,CLR,,0.00,WeatherDisplay:10.37,2013-03-16 05:20:00,
2013-03-16 01:25:00,39.6,-1.8,29.64,South,180,0.0,0.0,17,0.00,CLR,,0.00,WeatherDisplay:10.37,2013-03-16 05:25:00,
2013-03-16 01:30:00,39.2,-0.8,29.64,South,180,0.0,0.0,18,0.00,CLR,,0.00,WeatherDisplay:10.37,2013-03-16 05:30:00,
2013-03-16 01:35:00,39.2,-0.8,29.64,South,180,0.0,0.0,18,0.00,CLR,,0.00,WeatherDisplay:10.37,2013-03-16 05:35:00,
2013-03-16 01:40:00,39.2,-0.8,29.64,South,180,0.0,0.0,18,0.00,CLR,,0.00,WeatherDisplay:10.37,2013-03-16 05:40:00,
2013-03-16 01:45:00,39.3,0.4,29.64,South,180,0.0,0.0,19,0.00,CLR,,0.00,WeatherDisplay:10.37,2013-03-16 05:45:00,
2013-03-16 01:50:00,39.4,2.6,29.64,South,187,0.0,0.0,21,0.00,CLR,,0.00,WeatherDisplay:10.37,2013-03-16 05:50:00,
2013-03-16 01:55:00,39.4,3.6,29.64,SW,225,0.0,0.0,22,0.00,CLR,,0.00,WeatherDisplay:10.37,2013-03-16 05:55:00,
2013-03-16 02:00:00,39.6,3.8,29.64,SW,225,0.0,0.0,22,0.00,CLR,,0.00,WeatherDisplay:10.37,2013-03-16 06:00:00,
2013-03-16 02:05:00,39.6,2.8,29.64,SW,225,0.0,0.0,21,0.00,CLR,,0.00,WeatherDisplay:10.37,2013-03-16 06:05:00,
2013-03-16 02:10:00,39.6,2.8,29.65,SW,225,0.0,0.0,21,0.00,CLR,,0.00,WeatherDisplay:10.37,2013-03-16 06:10:00,
2013-03-16 02:15:00,39.6,2.8,29.65,SW,225,0.0,0.0,21,0.00,CLR,,0.00,WeatherDisplay:10.37,2013-03-16 06:15:00,
2013-03-16 02:20:00,39.7,3.9,29.65,SSW,204,0.0,0.0,22,0.00,CLR,,0.00,WeatherDisplay:10.37,2013-03-16 06:20:00,
2013-03-16 02:25:00,39.9,5.0,29.65,NE,45,1.1,0.0,23,0.00,CLR,,0.00,WeatherDisplay:10.37,2013-03-16 06:25:00,
2013-03-16 02:30:00,40.1,5.2,29.65,NE,45,0.0,0.0,23,0.00,CLR,,0.00,WeatherDisplay:10.37,2013-03-16 06:30:00,
2013-03-16 02:35:00,40.3,5.4,29.65,NE,45,0.0,0.0,23,0.00,CLR,,0.00,WeatherDisplay:10.37,2013-03-16 06:35:00,
2013-03-16 02:40:00,40.3,6.3,29.65,NE,45,0.0,0.0,24,0.00,CLR,,0.00,WeatherDisplay:10.37,2013-03-16 06:40:00,
2013-03-16 02:45:00,40.1,6.1,29.65,NE,45,0.0,0.0,24,0.00,CLR,,0.00,WeatherDisplay:10.37,2013-03-16 06:45:00,
2013-03-16 02:50:00,40.3,7.2,29.65,NE,45,0.0,0.0,25,0.00,CLR,,0.00,WeatherDisplay:10.37,2013-03-16 06:50:00,
2013-03-16 02:55:00,40.3,8.1,29.66,NE,45,0.0,0.0,26,0.00,CLR,,0.00,WeatherDisplay:10.37,2013-03-16 06:55:00,
2013-03-16 03:00:00,40.2,8.0,29.66,NE,45,0.0,0.0,26,0.00,CLR,,0.00,WeatherDisplay:10.37,2013-03-16 07:00:00,
2013-03-16 03:05:00,40.1,8.7,29.66,NE,45,0.0,0.0,27,0.00,CLR,,0.00,WeatherDisplay:10.37,2013-03-16 07:05:00,
2013-03-16 03:10:00,39.9,10.2,29.66,NE,45,0.0,0.0,29,0.00,CLR,,0.00,WeatherDisplay:10.37,2013-03-16 07:10:00,
2013-03-16 03:15:00,40.1,11.1,29.66,NNE,30,0.0,2.0,30,0.00,CLR,,0.00,WeatherDisplay:10.37,2013-03-16 07:15:00,
2013-03-16 03:20:00,39.9,10.9,29.66,North,0,0.0,0.0,30,0.00,CLR,,0.00,WeatherDisplay:10.37,2013-03-16 07:20:00,
2013-03-16 03:25:00,39.9,10.9,29.66,NE,37,0.0,2.0,30,0.00,CLR,,0.00,WeatherDisplay:10.37,2013-03-16 07:25:00,
2013-03-16 03:30:00,39.9,10.9,29.66,SSE,168,0.0,0.0,30,0.00,CLR,,0.00,WeatherDisplay:10.37,2013-03-16 07:30:00,
2013-03-16 03:35:00,39.4,10.5,29.66,North,0,0.0,0.0,30,0.00,CLR,,0.00,WeatherDisplay:10.37,2013-03-16 07:35:00,
2013-03-16 03:40:00,39.4,11.9,29.66,NNE,22,1.0,3.0,32,0.00,CLR,,0.00,WeatherDisplay:10.37,2013-03-16 07:40:00,
2013-03-16 03:45:00,39.4,11.2,29.66,North,0,3.5,0.0,31,0.00,CLR,,0.00,WeatherDisplay:10.37,2013-03-16 07:45:00,
2013-03-16 03:50:00,39.7,11.5,29.67,North,0,3.5,3.5,31,0.00,CLR,,0.00,WeatherDisplay:10.37,2013-03-16 07:50:00,
2013-03-16 03:55:00,39.7,10.8,29.66,North,0,2.3,2.3,30,0.00,CLR,,0.00,WeatherDisplay:10.37,2013-03-16 07:55:00,
2013-03-16 04:00:00,39.7,10.8,29.66,North,5,1.0,6.0,30,0.00,CLR,,0.00,WeatherDisplay:10.37,2013-03-16 08:00:00,
2013-03-16 04:05:00,39.4,10.5,29.67,NNW,338,2.3,0.0,30,0.00,CLR,,0.00,WeatherDisplay:10.37,2013-03-16 08:05:00,
2013-03-16 04:10:00,39.0,9.4,29.67,SW,225,0.0,0.0,29,0.00,CLR,,0.00,WeatherDisplay:10.37,2013-03-16 08:10:00,
2013-03-16 04:15:00,38.7,9.8,29.67,West,270,0.0,0.0,30,0.00,CLR,,0.00,WeatherDisplay:10.37,2013-03-16 08:15:00,
2013-03-16 04:20:00,38.5,9.7,29.67,West,270,0.0,0.0,30,0.00,CLR,,0.00,WeatherDisplay:10.37,2013-03-16 08:20:00,
2013-03-16 04:25:00,38.1,10.1,29.67,West,270,0.0,0.0,31,0.00,CLR,,0.00,WeatherDisplay:10.37,2013-03-16 08:25:00,
2013-03-16 04:30:00,37.9,10.7,29.67,NNW,338,2.3,0.0,32,0.00,CLR,,0.00,WeatherDisplay:10.37,2013-03-16 08:30:00,
2013-03-16 04:35:00,37.8,10.5,29.67,North,0,3.5,3.5,32,0.00,CLR,,0.00,WeatherDisplay:10.37,2013-03-16 08:35:00,
2013-03-16 04:40:00,37.8,10.5,29.68,NW,315,2.3,2.3,32,0.00,CLR,,0.00,WeatherDisplay:10.37,2013-03-16 08:40:00,
2013-03-16 04:45:00,37.8,10.5,29.68,North,0,3.5,3.5,32,0.00,CLR,,0.00,WeatherDisplay:10.37,2013-03-16 08:45:00,
2013-03-16 04:50:00,37.8,10.5,29.67,North,0,3.5,3.5,32,0.00,CLR,,0.00,WeatherDisplay:10.37,2013-03-16 08:50:00,
2013-03-16 04:55:00,37.8,10.5,29.67,North,0,3.5,3.5,32,0.00,CLR,,0.00,WeatherDisplay:10.37,2013-03-16 08:55:00,
2013-03-16 05:00:00,37.9,9.9,29.68,East,90,0.0,0.0,31,0.00,CLR,,0.00,WeatherDisplay:10.37,2013-03-16 09:00:00,
2013-03-16 05:05:00,37.9,9.9,29.67,North,0,0.0,0.0,31,0.00,CLR,,0.00,WeatherDisplay:10.37,2013-03-16 09:05:00,
2013-03-16 05:10:00,38.1,8.6,29.67,NE,45,3.5,3.5,29,0.00,CLR,,0.00,WeatherDisplay:10.37,2013-03-16 09:10:00,
2013-03-16 05:15:00,38.1,7.8,29.68,NNW,338,2.3,0.0,28,0.00,CLR,,0.00,WeatherDisplay:10.37,2013-03-16 09:15:00,
2013-03-16 05:20:00,38.3,7.2,29.68,North,0,1.1,0.0,27,0.00,CLR,,0.00,WeatherDisplay:10.37,2013-03-16 09:20:00,
2013-03-16 05:25:00,38.3,6.4,29.68,NE,45,0.0,0.0,26,0.00,CLR,,0.00,WeatherDisplay:10.37,2013-03-16 09:25:00,
2013-03-16 05:30:00,38.3,5.5,29.67,North,0,2.3,0.0,25,0.00,CLR,,0.00,WeatherDisplay:10.37,2013-03-16 09:30:00,
2013-03-16 05:35:00,38.3,5.5,29.68,NE,45,1.6,0.0,25,0.00,CLR,,0.00,WeatherDisplay:10.37,2013-03-16 09:35:00,
2013-03-16 05:40:00,38.1,3.5,29.68,NNW,338,2.3,2.3,23,0.00,CLR,,0.00,WeatherDisplay:10.37,2013-03-16 09:40:00,
2013-03-16 05:45:00,38.1,2.6,29.69,NNE,22,4.6,4.6,22,0.00,CLR,,0.00,WeatherDisplay:10.37,2013-03-16 09:45:00,
2013-03-16 05:50:00,38.1,2.6,29.69,North,0,2.3,2.3,22,0.00,CLR,,0.00,WeatherDisplay:10.37,2013-03-16 09:50:00,
2013-03-16 05:55:00,38.1,1.6,29.69,North,0,2.3,2.3,21,0.00,CLR,,0.00,WeatherDisplay:10.37,2013-03-16 09:55:00,
2013-03-16 06:00:00,38.1,0.5,29.69,NW,315,2.3,2.3,20,0.00,CLR,,0.00,WeatherDisplay:10.37,2013-03-16 10:00:00,
2013-03-16 06:05:00,37.9,0.4,29.69,NW,315,2.3,0.0,20,0.00,CLR,,0.00,WeatherDisplay:10.37,2013-03-16 10:05:00,
2013-03-16 06:10:00,37.8,0.2,29.69,North,0,3.5,3.5,20,0.00,CLR,,0.00,WeatherDisplay:10.37,2013-03-16 10:10:00,
2013-03-16 06:15:00,37.6,0.1,29.69,North,0,3.5,3.5,20,0.00,CLR,,0.00,WeatherDisplay:10.37,2013-03-16 10:15:00,
2013-03-16 06:20:00,37.6,-1.0,29.68,North,0,3.5,3.5,19,0.00,CLR,,0.00,WeatherDisplay:10.37,2013-03-16 10:20:00,
2013-03-16 06:25:00,37.6,-1.0,29.69,North,0,1.1,1.6,19,0.00,CLR,,0.00,WeatherDisplay:10.37,2013-03-16 10:25:00,
2013-03-16 06:30:00,37.6,-2.2,29.69,NNW,338,3.5,3.5,18,0.00,CLR,,0.00,WeatherDisplay:10.37,2013-03-16 10:30:00,
2013-03-16 06:35:00,37.4,-2.3,29.69,North,0,2.3,2.3,18,0.00,CLR,,0.00,WeatherDisplay:10.37,2013-03-16 10:35:00,
2013-03-16 06:40:00,37.4,-2.3,29.69,North,0,0.0,0.0,18,0.00,CLR,,0.00,WeatherDisplay:10.37,2013-03-16 10:40:00,
2013-03-16 06:45:00,37.2,-2.5,29.69,NE,45,2.3,2.3,18,0.00,CLR,,0.00,WeatherDisplay:10.37,2013-03-16 10:45:00,
2013-03-16 06:50:00,37.0,-3.8,29.69,NW,315,4.6,4.6,17,0.00,CLR,,0.00,WeatherDisplay:10.37,2013-03-16 10:50:00,
2013-03-16 06:55:00,36.9,-2.8,29.69,North,0,2.3,0.0,18,0.00,CLR,,0.00,WeatherDisplay:10.37,2013-03-16 10:55:00,
2013-03-16 07:00:00,36.9,-2.8,29.69,North,0,2.3,0.0,18,0.00,CLR,,0.00,WeatherDisplay:10.37,2013-03-16 11:00:00,
2013-03-16 07:05:00,36.9,-2.8,29.70,North,0,2.3,2.3,18,0.00,CLR,,0.00,WeatherDisplay:10.37,2013-03-16 11:05:00,
2013-03-16 07:10:00,36.9,-2.8,29.69,North,0,0.0,0.0,18,0.00,CLR,,0.00,WeatherDisplay:10.37,2013-03-16 11:10:00,
2013-03-16 07:15:00,37.2,-2.5,29.69,North,0,0.0,0.0,18,0.00,CLR,,0.00,WeatherDisplay:10.37,2013-03-16 11:15:00,
2013-03-16 07:20:00,37.0,-2.6,29.69,NE,45,0.0,1.6,18,0.00,CLR,,0.00,WeatherDisplay:10.37,2013-03-16 11:20:00,
2013-03-16 07:25:00,37.2,-4.9,29.69,North,0,2.3,2.3,16,0.00,CLR,,0.00,WeatherDisplay:10.37,2013-03-16 11:25:00,
2013-03-16 07:30:00,37.4,-4.8,29.70,North,0,1.1,0.0,16,0.00,CLR,,0.00,WeatherDisplay:10.37,2013-03-16 11:30:00,
2013-03-16 07:36:00,37.4,-3.5,29.69,NNE,22,0.0,0.0,17,0.00,CLR,,0.00,WeatherDisplay:10.37,2013-03-16 11:36:00,
2013-03-16 07:41:00,37.6,-3.4,29.69,NE,45,0.0,0.0,17,0.00,CLR,,0.00,WeatherDisplay:10.37,2013-03-16 11:41:00,
2013-03-16 07:46:00,37.8,-4.5,29.69,NE,45,0.0,0.0,16,0.00,CLR,,0.00,WeatherDisplay:10.37,2013-03-16 11:46:00,
2013-03-16 07:51:00,37.9,-4.4,29.70,North,0,2.3,0.0,16,0.00,CLR,,0.00,WeatherDisplay:10.37,2013-03-16 11:51:00,
2013-03-16 07:56:00,38.1,-2.9,29.70,North,0,0.0,0.0,17,0.00,CLR,,0.00,WeatherDisplay:10.37,2013-03-16 11:56:00,
2013-03-16 08:01:00,38.3,-2.8,29.70,North,0,0.0,0.0,17,0.00,CLR,,0.00,WeatherDisplay:10.37,2013-03-16 12:01:00,
2013-03-16 08:06:00,38.5,-2.6,29.70,North,0,0.0,0.7,17,0.00,CLR,,0.00,WeatherDisplay:10.37,2013-03-16 12:06:00,
2013-03-16 08:11:00,38.5,-2.6,29.70,NNE,22,1.1,0.0,17,0.00,CLR,,0.00,WeatherDisplay:10.37,2013-03-16 12:11:00,
2013-03-16 08:16:00,38.5,-3.9,29.71,North,0,3.5,3.5,16,0.00,CLR,,0.00,WeatherDisplay:10.37,2013-03-16 12:16:00,
2013-03-16 08:21:00,38.7,-3.8,29.70,North,0,3.5,3.5,16,0.00,CLR,,0.00,WeatherDisplay:10.37,2013-03-16 12:21:00,
2013-03-16 08:27:00,38.7,-3.8,29.70,ENE,68,4.6,4.6,16,0.00,CLR,,0.00,WeatherDisplay:10.37,2013-03-16 12:27:00,
2013-03-16 08:32:00,38.8,-3.6,29.70,North,0,3.5,3.5,16,0.00,CLR,,0.00,WeatherDisplay:10.37,2013-03-16 12:32:00,
2013-03-16 08:37:00,39.0,-2.2,29.70,NNW,338,2.3,2.3,17,0.00,CLR,,0.00,WeatherDisplay:10.37,2013-03-16 12:37:00,
2013-03-16 08:42:00,39.2,-2.1,29.70,NE,45,4.6,4.6,17,0.00,CLR,,0.00,WeatherDisplay:10.37,2013-03-16 12:42:00,
2013-03-16 08:47:00,39.2,-3.3,29.70,North,0,3.5,3.5,16,0.00,CLR,,0.00,WeatherDisplay:10.37,2013-03-16 12:47:00,
2013-03-16 08:52:00,39.4,-3.2,29.70,North,0,3.5,3.5,16,0.00,CLR,,0.00,WeatherDisplay:10.37,2013-03-16 12:52:00,
2013-03-16 08:57:00,39.6,-4.4,29.70,North,0,4.6,4.6,15,0.00,CLR,,0.00,WeatherDisplay:10.37,2013-03-16 12:57:00,
2013-03-16 09:02:00,39.7,-4.2,29.70,North,0,5.8,5.8,15,0.00,CLR,,0.00,WeatherDisplay:10.37,2013-03-16 13:02:00,
2013-03-16 09:07:00,39.9,-5.5,29.70,North,0,4.6,4.6,14,0.00,CLR,,0.00,WeatherDisplay:10.37,2013-03-16 13:07:00,
2013-03-16 09:12:00,40.3,-6.8,29.70,NE,45,3.8,3.8,13,0.00,CLR,,0.00,WeatherDisplay:10.37,2013-03-16 13:12:00,
2013-03-16 09:17:00,40.8,-6.3,29.70,North,0,2.3,2.3,13,0.00,CLR,,0.00,WeatherDisplay:10.37,2013-03-16 13:17:00,
2013-03-16 09:22:00,41.2,-7.7,29.70,NE,45,4.6,4.6,12,0.00,CLR,,0.00,WeatherDisplay:10.37,2013-03-16 13:22:00,
2013-03-16 09:27:00,41.4,-7.6,29.69,East,90,2.3,2.3,12,0.00,CLR,,0.00,WeatherDisplay:10.37,2013-03-16 13:27:00,
2013-03-16 09:32:00,41.2,-9.5,29.69,NE,45,5.8,5.8,11,0.00,CLR,,0.00,WeatherDisplay:10.37,2013-03-16 13:32:00,
2013-03-16 09:37:00,41.2,-9.5,29.69,NNE,22,4.6,4.6,11,0.00,CLR,,0.00,WeatherDisplay:10.37,2013-03-16 13:37:00,
2013-03-16 09:43:00,41.0,-9.6,29.69,NE,45,4.6,4.6,11,0.00,CLR,,0.00,WeatherDisplay:10.37,2013-03-16 13:43:00,
2013-03-16 09:48:00,40.8,-9.8,29.69,North,0,6.9,6.9,11,0.00,CLR,,0.00,WeatherDisplay:10.37,2013-03-16 13:48:00,
2013-03-16 09:53:00,40.8,-8.0,29.69,North,0,6.9,6.9,12,0.00,CLR,,0.00,WeatherDisplay:10.37,2013-03-16 13:53:00,
2013-03-16 09:58:00,41.0,-9.6,29.69,NE,45,6.9,6.9,11,0.00,CLR,,0.00,WeatherDisplay:10.37,2013-03-16 13:58:00,
2013-03-16 10:03:00,41.0,-9.6,29.69,NE,45,4.6,4.6,11,0.00,CLR,,0.00,WeatherDisplay:10.37,2013-03-16 14:03:00,
2013-03-16 10:08:00,40.5,-12.0,29.69,NE,45,4.6,4.6,10,0.00,CLR,,0.00,WeatherDisplay:10.37,2013-03-16 14:08:00,
2013-03-16 10:13:00,40.3,-12.1,29.70,NE,45,8.1,8.1,10,0.00,CLR,,0.00,WeatherDisplay:10.37,2013-03-16 14:13:00,
2013-03-16 10:18:00,40.1,-10.3,29.70,NE,45,8.1,8.1,11,0.00,CLR,,0.00,WeatherDisplay:10.37,2013-03-16 14:18:00,
2013-03-16 10:23:00,40.1,-6.9,29.70,East,90,3.5,3.5,13,0.00,CLR,,0.00,WeatherDisplay:10.37,2013-03-16 14:23:00,
2013-03-16 10:28:00,40.3,-6.8,29.70,NW,315,3.5,3.5,13,0.00,CLR,,0.00,WeatherDisplay:10.37,2013-03-16 14:28:00,
2013-03-16 10:33:00,40.3,-5.2,29.70,North,0,5.8,5.8,14,0.00,CLR,,0.00,WeatherDisplay:10.37,2013-03-16 14:33:00,
2013-03-16 10:38:00,40.3,-5.2,29.70,North,0,5.8,5.8,14,0.00,CLR,,0.00,WeatherDisplay:10.37,2013-03-16 14:38:00,
2013-03-16 10:43:00,40.6,-5.0,29.70,NE,45,5.8,5.8,14,0.00,CLR,,0.00,WeatherDisplay:10.37,2013-03-16 14:43:00,
2013-03-16 10:48:00,40.6,-3.5,29.70,NE,45,5.8,5.8,15,0.00,CLR,,0.00,WeatherDisplay:10.37,2013-03-16 14:48:00,
2013-03-16 10:53:00,40.5,-2.3,29.70,NE,45,5.8,5.8,16,0.00,CLR,,0.00,WeatherDisplay:10.37,2013-03-16 14:53:00,
2013-03-16 10:58:00,40.5,-6.6,29.71,NE,45,5.8,5.8,13,0.00,CLR,,0.00,WeatherDisplay:10.37,2013-03-16 14:58:00,
2013-03-16 11:03:00,40.5,-6.6,29.71,NE,45,3.5,3.5,13,0.00,CLR,,0.00,WeatherDisplay:10.37,2013-03-16 15:03:00,
2013-03-16 11:08:00,40.5,-10.1,29.71,NE,45,4.6,4.6,11,0.00,CLR,,0.00,WeatherDisplay:10.37,2013-03-16 15:08:00,
2013-03-16 11:13:00,40.5,-10.1,29.71,NE,45,4.6,4.6,11,0.00,CLR,,0.00,WeatherDisplay:10.37,2013-03-16 15:13:00,
2013-03-16 11:18:00,40.5,-10.1,29.71,North,0,3.5,3.5,11,0.00,CLR,,0.00,WeatherDisplay:10.37,2013-03-16 15:18:00,
2013-03-16 11:23:00,40.6,-9.9,29.70,NE,45,4.6,4.6,11,0.00,CLR,,0.00,WeatherDisplay:10.37,2013-03-16 15:23:00,
2013-03-16 11:28:00,41.4,-9.3,29.70,NE,45,5.8,5.8,11,0.00,CLR,,0.00,WeatherDisplay:10.37,2013-03-16 15:28:00,
2013-03-16 11:33:00,41.4,-11.3,29.70,SE,135,5.8,5.8,10,0.00,CLR,,0.00,WeatherDisplay:10.37,2013-03-16 15:33:00,
2013-03-16 11:38:00,41.0,-7.8,29.71,NE,45,3.5,3.5,12,0.00,CLR,,0.00,WeatherDisplay:10.37,2013-03-16 15:38:00,
2013-03-16 11:44:00,41.0,-4.7,29.70,East,90,5.8,5.8,14,0.00,CLR,,0.00,WeatherDisplay:10.37,2013-03-16 15:44:00,
2013-03-16 11:49:00,40.8,-3.4,29.70,NE,45,4.6,4.6,15,0.00,CLR,,0.00,WeatherDisplay:10.37,2013-03-16 15:49:00,
2013-03-16 11:54:00,40.5,-3.7,29.71,NE,45,4.6,4.6,15,0.00,CLR,,0.00,WeatherDisplay:10.37,2013-03-16 15:54:00,
2013-03-16 11:59:00,40.3,-3.8,29.71,SE,135,3.5,3.5,15,0.00,CLR,,0.00,WeatherDisplay:10.37,2013-03-16 15:59:00,
2013-03-16 12:04:00,40.1,-3.9,29.70,NNE,22,5.8,5.8,15,0.00,CLR,,0.00,WeatherDisplay:10.37,2013-03-16 16:04:00,
2013-03-16 12:09:00,39.9,-1.5,29.70,North,0,3.5,3.5,17,0.00,CLR,,0.00,WeatherDisplay:10.37,2013-03-16 16:09:00,
2013-03-16 12:14:00,39.9,-1.5,29.70,NE,45,5.8,5.8,17,0.00,CLR,,0.00,WeatherDisplay:10.37,2013-03-16 16:14:00,
2013-03-16 12:19:00,40.1,-0.1,29.70,East,90,3.5,3.5,18,0.00,CLR,,0.00,WeatherDisplay:10.37,2013-03-16 16:19:00,
2013-03-16 12:24:00,40.1,-1.3,29.69,NE,45,5.8,5.8,17,0.00,CLR,,0.00,WeatherDisplay:10.37,2013-03-16 16:24:00,
2013-03-16 12:29:00,39.9,-0.2,29.69,NE,45,5.8,5.8,18,0.00,CLR,,0.00,WeatherDisplay:10.37,2013-03-16 16:29:00,
2013-03-16 12:34:00,39.9,-0.2,29.69,North,0,3.5,3.5,18,0.00,CLR,,0.00,WeatherDisplay:10.37,2013-03-16 16:34:00,
2013-03-16 12:39:00,39.4,2.6,29.70,North,0,6.9,6.9,21,0.00,CLR,,0.00,WeatherDisplay:10.37,2013-03-16 16:39:00,
2013-03-16 12:44:00,39.0,5.2,29.70,NW,315,3.5,3.5,24,0.00,CLR,,0.00,WeatherDisplay:10.37,2013-03-16 16:44:00,
2013-03-16 12:49:00,38.8,6.8,29.69,NE,45,2.3,0.0,26,0.00,CLR,,0.00,WeatherDisplay:10.37,2013-03-16 16:49:00,
2013-03-16 12:54:00,38.7,7.5,29.69,NE,45,3.5,3.5,27,0.00,CLR,,0.00,WeatherDisplay:10.37,2013-03-16 16:54:00,
2013-03-16 12:59:00,38.5,9.7,29.69,SE,135,5.8,5.8,30,0.00,CLR,,0.00,WeatherDisplay:10.37,2013-03-16 16:59:00,
2013-03-16 13:04:00,37.8,9.1,29.68,NE,45,4.5,4.5,30,0.00,CLR,,0.00,WeatherDisplay:10.37,2013-03-16 17:04:00,
2013-03-16 13:09:00,36.9,11.1,29.68,East,90,4.6,4.6,34,0.00,CLR,,0.00,WeatherDisplay:10.37,2013-03-16 17:09:00,
2013-03-16 13:14:00,36.5,12.7,29.67,NE,45,2.3,2.3,37,0.00,CLR,,0.00,WeatherDisplay:10.37,2013-03-16 17:14:00,
2013-03-16 13:19:00,36.3,13.1,29.68,North,0,1.1,0.0,38,0.00,CLR,,0.00,WeatherDisplay:10.37,2013-03-16 17:19:00,
2013-03-16 13:24:00,36.0,14.5,29.68,SSE,158,3.5,3.5,41,0.00,CLR,,0.00,WeatherDisplay:10.37,2013-03-16 17:24:00,
2013-03-16 13:29:00,35.6,14.2,29.68,East,90,3.5,3.5,41,0.00,CLR,,0.00,WeatherDisplay:10.37,2013-03-16 17:29:00,
2013-03-16 13:34:00,35.4,15.1,29.67,NE,45,3.5,3.5,43,0.00,CLR,,0.00,WeatherDisplay:10.37,2013-03-16 17:34:00,
2013-03-16 13:39:00,35.4,15.1,29.68,NE,45,4.6,4.6,43,0.00,CLR,,0.00,WeatherDisplay:10.37,2013-03-16 17:39:00,
2013-03-16 13:44:00,35.2,14.9,29.68,NE,45,4.6,4.6,43,0.00,CLR,,0.00,WeatherDisplay:10.37,2013-03-16 17:44:00,
2013-03-16 13:49:00,35.2,16.0,29.68,East,90,4.5,4.5,45,0.00,CLR,,0.00,WeatherDisplay:10.37,2013-03-16 17:49:00,
2013-03-16 13:54:00,35.2,16.0,29.68,NNE,22,3.5,3.5,45,0.00,CLR,,0.00,WeatherDisplay:10.37,2013-03-16 17:54:00,
2013-03-16 13:59:00,35.2,16.5,29.67,NE,45,3.5,3.5,46,0.00,CLR,,0.00,WeatherDisplay:10.37,2013-03-16 17:59:00,
2013-03-16 14:04:00,35.2,17.0,29.66,North,0,6.9,0.0,47,0.00,CLR,,0.00,WeatherDisplay:10.37,2013-03-16 18:04:00,
2013-03-16 14:09:00,35.4,17.2,29.66,NE,45,4.6,4.6,47,0.00,CLR,,0.00,WeatherDisplay:10.37,2013-03-16 18:09:00,
2013-03-16 14:14:00,35.6,17.8,29.65,West,270,3.5,3.5,48,0.00,CLR,,0.00,WeatherDisplay:10.37,2013-03-16 18:14:00,
2013-03-16 14:19:00,35.8,18.5,29.65,NE,45,5.8,5.8,49,0.00,CLR,,0.00,WeatherDisplay:10.37,2013-03-16 18:19:00,
2013-03-16 14:24:00,35.8,18.5,29.65,North,0,3.5,3.5,49,0.00,CLR,,0.00,WeatherDisplay:10.37,2013-03-16 18:24:00,
2013-03-16 14:29:00,35.8,18.9,29.65,NE,45,5.8,5.8,50,0.00,CLR,,0.00,WeatherDisplay:10.37,2013-03-16 18:29:00,
2013-03-16 14:34:00,35.8,18.9,29.65,NNE,22,3.5,3.5,50,0.00,CLR,,0.00,WeatherDisplay:10.37,2013-03-16 18:34:00,
2013-03-16 14:39:00,35.8,19.4,29.64,NE,45,4.6,4.6,51,0.00,CLR,,0.00,WeatherDisplay:10.37,2013-03-16 18:39:00,
2013-03-16 14:44:00,35.8,19.4,29.65,NE,45,3.5,3.5,51,0.00,CLR,,0.00,WeatherDisplay:10.37,2013-03-16 18:44:00,
2013-03-16 14:49:00,35.8,19.4,29.65,NE,45,4.6,4.6,51,0.00,CLR,,0.00,WeatherDisplay:10.37,2013-03-16 18:49:00,
2013-03-16 14:54:00,35.8,19.9,29.66,North,0,5.8,5.8,52,0.00,CLR,,0.00,WeatherDisplay:10.37,2013-03-16 18:54:00,
2013-03-16 14:59:00,35.8,19.9,29.66,NE,45,6.9,6.9,52,0.00,CLR,,0.00,WeatherDisplay:10.37,2013-03-16 18:59:00,
2013-03-16 15:04:00,35.6,19.7,29.66,NE,45,4.6,4.6,52,0.00,CLR,,0.00,WeatherDisplay:10.37,2013-03-16 19:04:00,
2013-03-16 15:09:00,35.4,19.5,29.65,NE,45,3.5,3.5,52,0.00,CLR,,0.00,WeatherDisplay:10.37,2013-03-16 19:09:00,
2013-03-16 15:14:00,35.2,19.8,29.65,NE,45,5.8,5.8,53,0.01,RA,,0.01,WeatherDisplay:10.37,2013-03-16 19:14:00,
2013-03-16 15:19:00,35.2,19.8,29.65,NE,45,5.8,5.8,53,0.01,RA,,0.01,WeatherDisplay:10.37,2013-03-16 19:19:00,
2013-03-16 15:24:00,35.1,19.6,29.66,NE,45,4.6,4.6,53,0.01,CLR,,0.01,WeatherDisplay:10.37,2013-03-16 19:24:00,
2013-03-16 15:30:00,34.9,19.9,29.64,East,90,5.8,5.8,54,0.01,CLR,,0.01,WeatherDisplay:10.37,2013-03-16 19:30:00,
2013-03-16 15:35:00,34.7,19.7,29.64,NE,45,3.5,3.5,54,0.01,CLR,,0.01,WeatherDisplay:10.37,2013-03-16 19:35:00,
2013-03-16 15:40:00,34.5,20.0,29.63,NNE,22,5.8,5.8,55,0.01,CLR,,0.01,WeatherDisplay:10.37,2013-03-16 19:40:00,
2013-03-16 15:45:00,34.3,20.3,29.63,SE,135,3.5,3.5,56,0.01,CLR,,0.01,WeatherDisplay:10.37,2013-03-16 19:45:00,
2013-03-16 15:50:00,34.2,20.5,29.63,East,90,3.5,3.5,57,0.01,CLR,,0.01,WeatherDisplay:10.37,2013-03-16 19:50:00,
2013-03-16 15:55:00,34.0,20.7,29.62,South,180,4.6,4.6,58,0.01,CLR,,0.01,WeatherDisplay:10.37,2013-03-16 19:55:00,
2013-03-16 16:00:00,33.8,20.6,29.63,NE,45,3.5,3.5,58,0.01,CLR,,0.01,WeatherDisplay:10.37,2013-03-16 20:00:00,
2013-03-16 16:05:00,33.8,21.0,29.63,NE,45,9.2,9.2,59,0.01,CLR,,0.01,WeatherDisplay:10.37,2013-03-16 20:05:00,
2013-03-16 16:10:00,33.8,21.4,29.63,North,0,5.8,5.8,60,0.01,CLR,,0.01,WeatherDisplay:10.37,2013-03-16 20:10:00,
2013-03-16 16:15:00,33.8,21.8,29.64,North,0,3.5,3.8,61,0.00,CLR,,0.01,WeatherDisplay:10.37,2013-03-16 20:15:00,
2013-03-16 16:20:00,33.8,22.1,29.63,North,0,5.8,5.8,62,0.00,CLR,,0.01,WeatherDisplay:10.37,2013-03-16 20:20:00,
2013-03-16 16:25:00,33.8,22.5,29.65,NE,45,6.9,6.9,63,0.00,CLR,,0.01,WeatherDisplay:10.37,2013-03-16 20:25:00,
2013-03-16 16:30:00,33.8,22.5,29.64,NE,45,5.8,5.8,63,0.00,CLR,,0.01,WeatherDisplay:10.37,2013-03-16 20:30:00,
2013-03-16 16:35:00,34.0,23.1,29.64,NNE,31,2.0,7.0,64,0.00,CLR,,0.01,WeatherDisplay:10.37,2013-03-16 20:35:00,
2013-03-16 16:40:00,33.8,22.9,29.64,SE,135,6.9,6.9,64,0.00,CLR,,0.01,WeatherDisplay:10.37,2013-03-16 20:40:00,
2013-03-16 16:45:00,33.6,22.7,29.64,NE,45,5.8,5.8,64,0.00,CLR,,0.01,WeatherDisplay:10.37,2013-03-16 20:45:00,
2013-03-16 16:50:00,33.6,22.7,29.64,North,0,5.8,5.8,64,0.00,CLR,,0.01,WeatherDisplay:10.37,2013-03-16 20:50:00,
2013-03-16 16:55:00,33.6,23.1,29.63,East,90,5.8,5.8,65,0.00,CLR,,0.01,WeatherDisplay:10.37,2013-03-16 20:55:00,
2013-03-16 17:00:00,33.6,23.1,29.64,NNE,22,4.6,4.6,65,0.00,CLR,,0.01,WeatherDisplay:10.37,2013-03-16 21:00:00,
2013-03-16 17:05:00,33.6,23.1,29.63,NE,45,5.8,5.8,65,0.00,CLR,,0.01,WeatherDisplay:10.37,2013-03-16 21:05:00,
2013-03-16 17:10:00,33.6,23.5,29.64,NE,45,3.5,3.5,66,0.00,CLR,,0.01,WeatherDisplay:10.37,2013-03-16 21:10:00,
2013-03-16 17:15:00,33.6,23.5,29.65,NE,45,5.8,5.8,66,0.00,CLR,,0.01,WeatherDisplay:10.37,2013-03-16 21:15:00,
2013-03-16 17:20:00,33.6,23.5,29.64,North,0,3.5,0.0,66,0.00,CLR,,0.01,WeatherDisplay:10.37,2013-03-16 21:20:00,
2013-03-16 17:25:00,33.6,23.8,29.63,NE,45,6.9,6.9,67,0.00,CLR,,0.01,WeatherDisplay:10.37,2013-03-16 21:25:00,
2013-03-16 17:30:00,33.8,24.0,29.62,NE,45,4.6,4.6,67,0.00,CLR,,0.01,WeatherDisplay:10.37,2013-03-16 21:30:00,
2013-03-16 17:35:00,33.8,24.0,29.63,NE,45,6.9,6.9,67,0.00,CLR,,0.01,WeatherDisplay:10.37,2013-03-16 21:35:00,
2013-03-16 17:40:00,33.8,24.4,29.63,NE,45,4.6,4.6,68,0.00,CLR,,0.01,WeatherDisplay:10.37,2013-03-16 21:40:00,
2013-03-16 17:45:00,33.8,24.4,29.63,North,0,3.5,3.5,68,0.00,CLR,,0.01,WeatherDisplay:10.37,2013-03-16 21:45:00,
2013-03-16 17:50:00,33.8,24.4,29.64,East,90,3.5,3.5,68,0.00,CLR,,0.01,WeatherDisplay:10.37,2013-03-16 21:50:00,
2013-03-16 17:55:00,33.8,24.4,29.64,South,180,3.5,3.5,68,0.00,CLR,,0.01,WeatherDisplay:10.37,2013-03-16 21:55:00,
2013-03-16 18:00:00,33.8,24.7,29.64,NE,45,3.5,3.5,69,0.00,CLR,,0.01,WeatherDisplay:10.37,2013-03-16 22:00:00,
2013-03-16 18:05:00,33.8,24.7,29.64,ESE,112,4.6,4.6,69,0.00,CLR,,0.01,WeatherDisplay:10.37,2013-03-16 22:05:00,
2013-03-16 18:10:00,33.8,24.7,29.63,NE,45,5.8,5.8,69,0.00,CLR,,0.01,WeatherDisplay:10.37,2013-03-16 22:10:00,
2013-03-16 18:15:00,34.0,24.9,29.64,NE,45,4.6,4.6,69,0.00,CLR,,0.01,WeatherDisplay:10.37,2013-03-16 22:15:00,
2013-03-16 18:20:00,34.0,25.2,29.64,NE,45,5.8,5.8,70,0.00,CLR,,0.01,WeatherDisplay:10.37,2013-03-16 22:20:00,
2013-03-16 18:25:00,34.0,25.2,29.64,North,0,3.5,4.5,70,0.00,CLR,,0.01,WeatherDisplay:10.37,2013-03-16 22:25:00,
2013-03-16 18:30:00,34.2,25.4,29.64,North,0,6.9,6.9,70,0.00,CLR,,0.01,WeatherDisplay:10.37,2013-03-16 22:30:00,
2013-03-16 18:35:00,34.2,25.4,29.64,NE,45,5.8,5.8,70,0.00,CLR,,0.01,WeatherDisplay:10.37,2013-03-16 22:35:00,
2013-03-16 18:40:00,34.2,25.7,29.64,East,90,5.8,5.8,71,0.00,CLR,,0.01,WeatherDisplay:10.37,2013-03-16 22:40:00,
2013-03-16 18:45:00,34.2,25.7,29.64,North,0,5.8,5.8,71,0.00,CLR,,0.01,WeatherDisplay:10.37,2013-03-16 22:45:00,
2013-03-16 18:50:00,34.3,25.9,29.64,North,0,5.4,5.4,71,0.00,CLR,,0.01,WeatherDisplay:10.37,2013-03-16 22:50:00,
2013-03-16 18:55:00,34.3,25.9,29.64,NE,45,3.5,3.5,71,0.00,CLR,,0.01,WeatherDisplay:10.37,2013-03-16 22:55:00,
2013-03-16 19:00:00,34.3,25.9,29.64,SSE,158,4.6,4.6,71,0.00,CLR,,0.01,WeatherDisplay:10.37,2013-03-16 23:00:00,
2013-03-16 19:06:00,34.3,25.9,29.64,NE,45,4.6,4.6,71,0.00,CLR,,0.01,WeatherDisplay:10.37,2013-03-16 23:06:00,
2013-03-16 19:11:00,34.5,26.1,29.64,NE,45,4.6,4.6,71,0.00,CLR,,0.01,WeatherDisplay:10.37,2013-03-16 23:11:00,
2013-03-16 19:16:00,34.5,26.1,29.65,East,90,5.4,5.4,71,0.00,CLR,,0.01,WeatherDisplay:10.37,2013-03-16 23:16:00,
2013-03-16 19:21:00,34.5,26.1,29.64,North,0,4.6,4.6,71,0.00,CLR,,0.01,WeatherDisplay:10.37,2013-03-16 23:21:00,
2013-03-16 19:26:00,34.5,26.1,29.65,NNE,22,5.8,5.8,71,0.00,CLR,,0.01,WeatherDisplay:10.37,2013-03-16 23:26:00,
2013-03-16 19:31:00,34.7,26.3,29.65,East,90,4.6,4.6,71,0.00,CLR,,0.01,WeatherDisplay:10.37,2013-03-16 23:31:00,
2013-03-16 19:36:00,34.7,25.9,29.65,North,0,6.9,6.9,70,0.00,CLR,,0.01,WeatherDisplay:10.37,2013-03-16 23:36:00,
2013-03-16 19:41:00,34.7,25.9,29.65,North,0,6.9,6.9,70,0.00,CLR,,0.01,WeatherDisplay:10.37,2013-03-16 23:41:00,
2013-03-16 19:46:00,34.7,25.9,29.65,NE,45,3.5,3.5,70,0.00,CLR,,0.01,WeatherDisplay:10.37,2013-03-16 23:46:00,
2013-03-16 19:51:00,34.7,25.6,29.66,NW,315,3.5,3.5,69,0.00,CLR,,0.01,WeatherDisplay:10.37,2013-03-16 23:51:00,
2013-03-16 19:56:00,34.7,25.6,29.66,East,90,5.8,5.8,69,0.00,CLR,,0.01,WeatherDisplay:10.37,2013-03-16 23:56:00,
2013-03-16 20:01:00,34.7,25.2,29.67,NE,45,5.8,5.8,68,0.00,CLR,,0.01,WeatherDisplay:10.37,2013-03-17 00:01:00,
2013-03-16 20:07:00,34.9,25.4,29.67,NE,45,4.6,4.6,68,0.00,CLR,,0.01,WeatherDisplay:10.37,2013-03-17 00:07:00,
2013-03-16 20:12:00,34.9,25.0,29.67,North,0,3.5,3.5,67,0.00,CLR,,0.01,WeatherDisplay:10.37,2013-03-17 00:12:00,
2013-03-16 20:17:00,34.9,25.0,29.67,South,180,3.5,0.0,67,0.00,CLR,,0.01,WeatherDisplay:10.37,2013-03-17 00:17:00,
2013-03-16 20:22:00,34.9,24.7,29.68,North,0,3.5,3.5,66,0.00,CLR,,0.01,WeatherDisplay:10.37,2013-03-17 00:22:00,
2013-03-16 20:27:00,34.9,24.7,29.68,NE,45,3.5,3.5,66,0.00,CLR,,0.01,WeatherDisplay:10.37,2013-03-17 00:27:00,
2013-03-16 20:32:00,34.9,24.7,29.68,North,0,4.6,4.6,66,0.00,CLR,,0.01,WeatherDisplay:10.37,2013-03-17 00:32:00,
2013-03-16 20:37:00,34.9,24.7,29.69,North,0,3.5,3.5,66,0.00,CLR,,0.01,WeatherDisplay:10.37,2013-03-17 00:37:00,
2013-03-16 20:42:00,34.9,24.3,29.69,North,0,5.8,5.8,65,0.00,CLR,,0.01,WeatherDisplay:10.37,2013-03-17 00:42:00,
2013-03-16 20:47:00,34.9,24.3,29.70,NE,45,3.5,3.5,65,0.01,RA,,0.02,WeatherDisplay:10.37,2013-03-17 00:47:00,
2013-03-16 20:52:00,35.1,24.5,29.70,NE,45,5.8,5.8,65,0.01,RA,,0.02,WeatherDisplay:10.37,2013-03-17 00:52:00,
2013-03-16 20:57:00,35.1,24.1,29.70,NE,45,3.5,3.5,64,0.01,CLR,,0.02,WeatherDisplay:10.37,2013-03-17 00:57:00,
2013-03-16 21:02:00,34.9,23.9,29.71,NE,45,3.5,3.5,64,0.01,CLR,,0.02,WeatherDisplay:10.37,2013-03-17 01:02:00,
2013-03-16 21:08:00,35.1,24.1,29.70,NE,45,3.5,3.5,64,0.02,RA,,0.04,WeatherDisplay:10.37,2013-03-17 01:08:00,
2013-03-16 21:13:00,34.9,24.3,29.71,NE,45,3.5,3.5,65,0.02,RA,,0.04,WeatherDisplay:10.37,2013-03-17 01:13:00,
2013-03-16 21:18:00,34.9,24.3,29.70,NW,315,3.5,3.5,65,0.02,,,0.04,WeatherDisplay:10.37,2013-03-17 01:18:00,
2013-03-16 21:23:00,34.9,24.3,29.71,North,0,4.6,4.6,65,0.02,CLR,,0.04,WeatherDisplay:10.37,2013-03-17 01:23:00,
2013-03-16 21:28:00,34.9,24.3,29.71,North,0,3.5,3.5,65,0.02,CLR,,0.05,WeatherDisplay:10.37,2013-03-17 01:28:00,
2013-03-16 21:33:00,34.9,24.3,29.70,East,90,3.5,3.5,65,0.04,RA,,0.05,WeatherDisplay:10.37,2013-03-17 01:33:00,
2013-03-16 21:38:00,34.7,24.1,29.71,NW,315,2.3,2.3,65,0.04,RA,,0.05,WeatherDisplay:10.37,2013-03-17 01:38:00,
2013-03-16 21:43:00,34.7,24.1,29.71,North,0,3.5,3.5,65,0.04,CLR,,0.05,WeatherDisplay:10.37,2013-03-17 01:43:00,
2013-03-16 21:48:00,34.7,24.1,29.72,North,0,1.1,1.6,65,0.02,CLR,,0.05,WeatherDisplay:10.37,2013-03-17 01:48:00,
2013-03-16 21:53:00,34.7,24.1,29.72,North,0,1.1,0.0,65,0.02,CLR,,0.05,WeatherDisplay:10.37,2013-03-17 01:53:00,
2013-03-16 21:58:00,34.5,24.3,29.72,NE,45,2.3,2.3,66,0.04,RA,,0.06,WeatherDisplay:10.37,2013-03-17 01:58:00,
2013-03-16 22:03:00,34.5,24.3,29.73,North,0,3.5,3.5,66,0.04,RA,,0.06,WeatherDisplay:10.37,2013-03-17 02:03:00,
2013-03-16 22:08:00,34.5,24.3,29.73,NE,45,2.3,2.3,66,0.02,,,0.06,WeatherDisplay:10.37,2013-03-17 02:08:00,
2013-03-16 22:13:00,34.5,24.3,29.73,North,0,2.3,0.0,66,0.02,CLR,,0.06,WeatherDisplay:10.37,2013-03-17 02:13:00,
2013-03-16 22:18:00,34.5,24.3,29.73,North,0,2.3,0.0,66,0.02,CLR,,0.06,WeatherDisplay:10.37,2013-03-17 02:18:00,
2013-03-16 22:23:00,34.5,24.3,29.73,North,0,2.3,2.3,66,0.02,CLR,,0.06,WeatherDisplay:10.37,2013-03-17 02:23:00,
2013-03-16 22:28:00,34.5,24.3,29.74,NNE,22,2.3,0.0,66,0.02,CLR,,0.06,WeatherDisplay:10.37,2013-03-17 02:28:00,
2013-03-16 22:33:00,34.3,24.2,29.73,North,0,1.1,0.0,66,0.01,CLR,,0.06,WeatherDisplay:10.37,2013-03-17 02:33:00,
2013-03-16 22:38:00,34.3,24.2,29.74,North,0,2.3,2.3,66,0.02,RA,,0.07,WeatherDisplay:10.37,2013-03-17 02:38:00,
2013-03-16 22:43:00,34.3,24.2,29.73,East,90,2.3,2.3,66,0.02,RA,,0.07,WeatherDisplay:10.37,2013-03-17 02:43:00,
2013-03-16 22:48:00,34.3,24.2,29.75,North,0,2.3,0.0,66,0.02,CLR,,0.07,WeatherDisplay:10.37,2013-03-17 02:48:00,
2013-03-16 22:53:00,34.3,24.2,29.75,North,0,0.0,0.0,66,0.02,CLR,,0.07,WeatherDisplay:10.37,2013-03-17 02:53:00,
2013-03-16 22:58:00,34.3,24.2,29.75,NW,315,1.1,0.0,66,0.01,CLR,,0.07,WeatherDisplay:10.37,2013-03-17 02:58:00,
2013-03-16 23:03:00,34.3,24.2,29.75,NW,315,0.0,0.0,66,0.01,CLR,,0.07,WeatherDisplay:10.37,2013-03-17 03:03:00,
2013-03-16 23:08:00,34.3,24.2,29.75,North,0,0.0,0.0,66,0.01,CLR,,0.07,WeatherDisplay:10.37,2013-03-17 03:08:00,
2013-03-16 23:13:00,34.3,24.2,29.75,NNE,22,2.3,2.3,66,0.01,CLR,,0.07,WeatherDisplay:10.37,2013-03-17 03:13:00,
2013-03-16 23:18:00,34.3,24.2,29.75,North,0,3.5,0.0,66,0.01,CLR,,0.07,WeatherDisplay:10.37,2013-03-17 03:18:00,
2013-03-16 23:23:00,34.3,24.2,29.75,North,0,0.0,0.0,66,0.02,RA,,0.08,WeatherDisplay:10.37,2013-03-17 03:23:00,
2013-03-16 23:28:00,34.3,24.2,29.76,NE,45,2.3,0.0,66,0.02,RA,,0.08,WeatherDisplay:10.37,2013-03-17 03:28:00,
2013-03-16 23:33:00,34.3,24.2,29.76,NW,315,0.0,0.0,66,0.02,CLR,,0.08,WeatherDisplay:10.37,2013-03-17 03:33:00,
2013-03-16 23:38:00,34.3,24.2,29.76,NW,315,0.0,0.0,66,0.01,CLR,,0.08,WeatherDisplay:10.37,2013-03-17 03:38:00,
2013-03-16 23:43:00,34.3,24.2,29.76,West,270,0.0,0.0,66,0.01,CLR,,0.08,WeatherDisplay:10.37,2013-03-17 03:43:00,
2013-03-16 23:48:00,34.3,24.2,29.76,West,270,0.0,0.0,66,0.01,CLR,,0.08,WeatherDisplay:10.37,2013-03-17 03:48:00,
2013-03-16 23:53:00,34.3,24.2,29.77,NW,315,0.0,0.0,66,0.01,CLR,,0.08,WeatherDisplay:10.37,2013-03-17 03:53:00,
2013-03-16 23:58:00,34.3,24.2,29.77,NW,315,1.1,0.0,66,0.01,CLR,,0.08,WeatherDisplay:10.37,2013-03-17 03:58:00,